Terminal Aerodrome Forecast
Issued by NWS

Home | Current Version | Previous Version | Graphics & Text | Print | Product List | Glossary On
Versions: 1 2 3 4 5 6 7 8 9 10 11 12 13 14 15
097
FTUS45 KGGW 221608 AAA
TAFSDY
TAF AMD
KSDY 221608Z 2216/2312 31015KT P6SM SKC
     FM221800 29019G27KT P6SM FEW090
     FM222200 30025G34KT P6SM BKN090
     FM230600 31018KT P6SM BKN035
     FM230900 31013G21KT P6SM SCT026=

USA.gov is the U.S. government's official web portal to all federal, state and local government web resources and services.